Time;durP1;ratioP1;P1;durP2;ratioP2;P2;SDS_P1;SDS_P2;PMS_P1;PMS_P2;Temp;Humidity;BMP_temperature;BMP_pressure;BME280_temperature;BME280_humidity;BME280_pressure;Samples;Min_cycle;Max_cycle;Signal;HPM_P1;HPM_P2
2022/06/07 00:02:28;;;;;;;1.83;1.73;;;;;;;15.79;65.69;98652.63;4987914;28;20033;-78
2022/06/07 00:04:54;;;;;;;5.32;3.90;;;;;;;15.31;66.94;98644.47;5004422;28;20053;-78
2022/06/07 00:07:22;;;;;;;2.70;1.95;;;;;;;15.56;66.84;98656.91;5019829;28;20121;-78
2022/06/07 00:09:48;;;;;;;4.45;2.47;;;;;;;15.70;66.52;98657.84;5006507;28;20041;-78
2022/06/07 00:12:13;;;;;;;2.55;2.35;;;;;;;15.80;66.07;98652.34;5004303;28;20030;-78
2022/06/07 00:14:39;;;;;;;6.00;2.60;;;;;;;15.69;65.83;98650.84;5022168;28;20030;-78
2022/06/07 00:17:05;;;;;;;2.03;1.83;;;;;;;15.58;66.48;98647.47;5006698;28;20026;-78
2022/06/07 00:19:31;;;;;;;3.22;2.15;;;;;;;15.07;67.96;98642.84;4991694;28;20386;-78
2022/06/07 00:21:57;;;;;;;2.65;2.22;;;;;;;15.41;66.99;98647.09;4990614;28;20061;-78
2022/06/07 00:24:23;;;;;;;2.83;2.55;;;;;;;15.50;66.25;98652.69;5005580;28;20049;-78
2022/06/07 00:26:48;;;;;;;2.60;2.40;;;;;;;15.66;66.01;98640.69;5004607;28;20030;-78
2022/06/07 00:29:14;;;;;;;3.03;2.22;;;;;;;15.82;65.67;98641.28;5003430;28;20041;-78
2022/06/07 00:31:41;;;;;;;3.38;2.00;;;;;;;15.85;65.84;98656.88;5005167;28;20037;-78
2022/06/07 00:34:07;;;;;;;2.45;2.10;;;;;;;15.63;65.81;98641.25;5008364;28;20946;-78
2022/06/07 00:36:34;;;;;;;2.97;2.53;;;;;;;15.58;65.98;98639.41;5003632;28;20132;-78
2022/06/07 00:39:00;;;;;;;7.85;4.93;;;;;;;15.78;66.07;98649.13;4966124;28;20456;-78
2022/06/07 00:41:25;;;;;;;3.78;2.28;;;;;;;15.75;65.74;98641.63;5006011;28;20026;-78
2022/06/07 00:44:33;;;;;;;2.10;1.88;;;;;;;15.67;66.17;98650.34;4974753;28;20441;-78
2022/06/07 00:47:15;;;;;;;3.03;2.20;;;;;;;15.68;65.80;98649.25;5006113;28;20028;-78
2022/06/07 00:49:49;;;;;;;2.65;2.17;;;;;;;15.68;65.76;98650.03;5002958;28;20112;-78
2022/06/07 00:52:16;;;;;;;2.65;1.73;;;;;;;15.59;65.82;98632.94;5003018;28;20447;-78
2022/06/07 00:54:41;;;;;;;4.30;1.92;;;;;;;15.63;65.85;98633.16;4987137;28;20045;-78
2022/06/07 00:57:07;;;;;;;2.65;2.20;;;;;;;15.63;66.58;98638.53;5004556;28;20030;-78
2022/06/07 00:59:33;;;;;;;5.28;1.63;;;;;;;15.60;66.44;98639.09;5006715;28;20049;-79
2022/06/07 01:01:59;;;;;;;2.30;1.90;;;;;;;15.48;66.19;98634.13;5019911;28;20076;-78
2022/06/07 01:04:27;;;;;;;2.38;2.17;;;;;;;15.49;66.20;98624.97;5005755;28;20030;-78
2022/06/07 01:12:21;;;;;;;1.80;1.70;;;;;;;14.96;67.84;98615.25;5004704;28;20053;-78
2022/06/07 01:14:46;;;;;;;2.22;1.90;;;;;;;15.13;67.53;98634.47;4987988;28;20501;-78
2022/06/07 01:17:11;;;;;;;3.90;2.08;;;;;;;14.84;68.39;98623.69;4987032;28;20026;-78
2022/06/07 01:19:39;;;;;;;2.42;2.20;;;;;;;15.00;68.05;98613.59;5002873;28;21268;-78
2022/06/07 01:22:04;;;;;;;3.10;2.00;;;;;;;15.02;68.25;98624.88;5009342;28;20033;-77
2022/06/07 01:24:30;;;;;;;2.00;1.73;;;;;;;15.31;67.42;98624.88;5009904;28;20036;-78
2022/06/07 01:26:55;;;;;;;2.30;1.98;;;;;;;15.55;66.42;98623.03;5008590;28;20441;-78
2022/06/07 01:29:21;;;;;;;2.83;2.15;;;;;;;15.46;66.28;98608.63;5005082;28;20131;-78
2022/06/07 01:31:47;;;;;;;3.15;1.70;;;;;;;15.43;66.72;98620.75;5009712;28;20045;-78
2022/06/07 01:34:12;;;;;;;2.50;1.80;;;;;;;15.49;66.50;98613.41;4991179;28;20133;-78
2022/06/07 01:36:39;;;;;;;1.88;1.67;;;;;;;15.41;66.89;98600.56;4988785;28;20081;-78
2022/06/07 01:41:55;;;;;;;4.78;2.40;;;;;;;14.38;70.13;98614.34;5006146;28;20061;-78
2022/06/07 01:44:31;;;;;;;2.28;1.75;;;;;;;14.93;68.68;98610.44;5006298;28;20068;-78
2022/06/07 01:47:00;;;;;;;1.88;1.77;;;;;;;14.85;68.61;98609.16;5007952;28;20026;-78
2022/06/07 01:49:25;;;;;;;2.72;2.33;;;;;;;13.72;72.49;98613.84;5011088;28;20044;-78
2022/06/07 01:51:52;;;;;;;3.90;2.50;;;;;;;14.75;69.28;98608.44;5009475;28;20041;-78
2022/06/07 01:54:19;;;;;;;1.90;1.80;;;;;;;14.79;68.62;98604.91;5008463;28;20113;-78
2022/06/07 01:56:44;;;;;;;1.67;1.58;;;;;;;14.99;67.92;98615.47;5008305;28;20034;-78
2022/06/07 01:59:10;;;;;;;1.98;1.73;;;;;;;14.17;71.04;98604.78;4992210;28;20022;-77
2022/06/07 02:01:36;;;;;;;2.90;1.75;;;;;;;14.93;68.41;98610.44;5007415;28;20037;-78
2022/06/07 02:04:03;;;;;;;3.72;1.95;;;;;;;14.92;68.22;98609.63;5008851;28;20117;-78
2022/06/07 02:06:29;;;;;;;2.05;1.77;;;;;;;15.10;67.65;98613.50;5008054;28;20026;-77
2022/06/07 02:08:55;;;;;;;3.47;1.60;;;;;;;15.15;67.42;98609.97;5008740;28;20045;-78
2022/06/07 02:11:23;;;;;;;2.45;2.05;;;;;;;15.28;67.25;98614.69;4987420;28;20057;-78
2022/06/07 02:13:49;;;;;;;3.00;1.52;;;;;;;15.01;67.85;98612.50;5004437;28;20120;-78
2022/06/07 02:16:16;;;;;;;2.75;2.00;;;;;;;15.06;67.66;98607.09;5008940;28;20484;-78
2022/06/07 02:18:42;;;;;;;4.75;2.10;;;;;;;15.11;67.73;98609.75;4990351;28;20539;-77
2022/06/07 02:21:08;;;;;;;2.25;2.05;;;;;;;15.09;67.40;98601.16;5009832;28;20033;-78
2022/06/07 02:23:36;;;;;;;2.13;1.75;;;;;;;15.29;66.76;98614.38;5004530;28;20028;-78
2022/06/07 02:26:05;;;;;;;2.92;2.67;;;;;;;15.17;67.47;98619.34;5020679;28;20065;-78
2022/06/07 02:28:34;;;;;;;2.47;1.83;;;;;;;15.08;67.54;98604.91;5004920;28;20034;-77
2022/06/07 02:31:00;;;;;;;4.78;1.73;;;;;;;15.14;67.05;98611.84;4987954;28;20042;-78
2022/06/07 02:33:27;;;;;;;1.98;1.88;;;;;;;15.09;67.13;98608.41;5023020;28;20021;-78
2022/06/07 02:35:53;;;;;;;1.70;1.60;;;;;;;15.12;67.09;98603.25;4987507;28;20034;-78
2022/06/07 02:38:20;;;;;;;2.05;1.67;;;;;;;15.07;67.34;98618.66;4999981;28;20030;-78
2022/06/07 02:40:48;;;;;;;3.05;2.13;;;;;;;15.09;66.79;98609.22;5007202;28;20531;-78
2022/06/07 02:43:13;;;;;;;2.17;1.98;;;;;;;15.02;67.47;98616.81;5008855;28;20025;-78
2022/06/07 02:45:39;;;;;;;3.13;1.92;;;;;;;14.82;67.55;98608.91;5005550;28;20252;-78
2022/06/07 02:48:06;;;;;;;3.15;2.00;;;;;;;14.79;67.47;98591.47;5006623;28;20456;-78
2022/06/07 02:50:31;;;;;;;1.88;1.77;;;;;;;14.79;67.49;98599.53;5007422;28;20374;-78
2022/06/07 02:52:57;;;;;;;3.20;1.63;;;;;;;14.81;67.37;98602.72;5005116;28;20022;-78
2022/06/07 02:55:22;;;;;;;6.13;2.60;;;;;;;14.63;67.64;98595.38;5005347;28;20389;-78
2022/06/07 02:57:47;;;;;;;6.05;2.67;;;;;;;13.59;71.71;98616.28;5007457;28;20026;-78
2022/06/07 03:00:15;;;;;;;2.25;2.05;;;;;;;13.75;71.32;98615.97;5008362;28;20038;-78
2022/06/07 03:02:41;;;;;;;2.72;2.30;;;;;;;14.21;69.57;98593.22;5005924;28;20045;-78
2022/06/07 03:05:07;;;;;;;2.10;1.90;;;;;;;14.59;68.00;98594.31;4988917;28;20026;-78
2022/06/07 03:07:33;;;;;;;4.00;2.53;;;;;;;14.48;68.07;98592.78;5005292;28;20056;-78
2022/06/07 03:09:58;;;;;;;3.20;2.08;;;;;;;14.57;67.89;98606.44;5006607;28;20068;-78
2022/06/07 03:12:23;;;;;;;4.32;2.13;;;;;;;14.62;67.72;98593.75;5008156;28;20386;-78
2022/06/07 03:14:49;;;;;;;1.85;1.75;;;;;;;14.56;68.21;98608.31;5002649;28;20381;-78
2022/06/07 03:17:14;;;;;;;2.72;2.10;;;;;;;14.65;68.09;98595.09;5006243;28;20567;-78
2022/06/07 03:19:40;;;;;;;1.92;1.80;;;;;;;14.61;67.41;98575.25;4989893;28;20139;-78
2022/06/07 03:22:07;;;;;;;3.60;2.30;;;;;;;14.41;68.46;98597.69;5004945;28;20052;-78
2022/06/07 03:24:33;;;;;;;2.85;2.60;;;;;;;14.18;68.93;98592.94;5004743;28;20033;-78
2022/06/07 03:26:58;;;;;;;2.60;2.20;;;;;;;14.02;69.67;98604.88;5002433;28;20579;-78
2022/06/07 03:29:24;;;;;;;4.53;2.28;;;;;;;13.76;70.76;98596.13;4989391;28;20102;-78
2022/06/07 03:31:50;;;;;;;3.35;2.45;;;;;;;13.25;72.18;98579.41;5006665;28;20157;-78
2022/06/07 03:34:15;;;;;;;3.05;2.22;;;;;;;13.80;69.90;98585.66;5007154;28;20042;-78
2022/06/07 03:36:40;;;;;;;2.22;2.03;;;;;;;13.85;69.68;98573.00;5006983;28;20066;-78
2022/06/07 03:39:08;;;;;;;2.78;2.22;;;;;;;14.47;68.56;98577.75;4988077;28;20386;-77
2022/06/07 03:41:34;;;;;;;3.33;2.30;;;;;;;14.59;67.93;98577.41;5016443;28;20041;-77
2022/06/07 03:43:59;;;;;;;4.10;2.40;;;;;;;14.54;67.64;98570.19;5003529;28;20048;-77
2022/06/07 03:46:28;;;;;;;2.47;1.85;;;;;;;14.60;67.65;98579.00;5006112;28;20037;-77
2022/06/07 03:48:55;;;;;;;2.20;2.00;;;;;;;14.56;66.94;98559.16;5001914;28;20034;-77
2022/06/07 03:51:23;;;;;;;2.55;2.35;;;;;;;14.57;67.58;98572.31;5004946;28;20493;-77
2022/06/07 03:53:50;;;;;;;3.22;1.95;;;;;;;14.58;67.62;98576.59;4988977;28;20038;-77
2022/06/07 03:56:16;;;;;;;3.10;2.20;;;;;;;14.83;67.44;98583.66;5007775;28;20505;-77
2022/06/07 03:58:42;;;;;;;5.10;2.55;;;;;;;14.68;67.51;98586.44;5017580;28;20041;-77
2022/06/07 04:01:15;;;;;;;2.50;2.00;;;;;;;14.66;67.80;98580.56;5000156;28;20489;-77
2022/06/07 04:03:43;;;;;;;2.58;2.20;;;;;;;14.73;67.64;98579.16;5006239;28;20037;-77
2022/06/07 04:06:23;;;;;;;6.78;2.90;;;;;;;14.70;67.52;98571.66;4970499;28;20049;-77
2022/06/07 04:08:49;;;;;;;3.15;2.25;;;;;;;14.68;67.67;98570.34;5022473;28;20394;-77
2022/06/07 04:11:17;;;;;;;2.88;2.67;;;;;;;14.77;68.09;98585.56;5009610;28;20026;-77
2022/06/07 04:13:43;;;;;;;2.55;2.35;;;;;;;14.92;67.82;98590.81;5006898;28;20083;-77
2022/06/07 04:16:10;;;;;;;2.28;2.17;;;;;;;14.83;68.44;98591.72;5006134;28;20382;-77
2022/06/07 04:18:35;;;;;;;2.03;1.90;;;;;;;14.93;68.19;98587.06;5007127;28;20048;-77
2022/06/07 04:21:02;;;;;;;4.07;2.38;;;;;;;15.18;67.53;98591.38;5006126;28;20022;-79
2022/06/07 04:23:27;;;;;;;3.80;2.55;;;;;;;15.26;67.65;98595.34;5007211;28;20490;-78
2022/06/07 04:25:53;;;;;;;3.13;2.92;;;;;;;15.09;69.24;98592.28;5005410;28;20089;-78
2022/06/07 04:28:18;;;;;;;3.50;3.20;;;;;;;15.41;67.81;98595.19;4991172;28;20108;-78
2022/06/07 04:30:48;;;;;;;3.22;2.47;;;;;;;15.48;67.54;98587.59;5002219;28;20026;-78
2022/06/07 04:33:15;;;;;;;4.40;2.38;;;;;;;15.61;67.32;98597.69;4985883;28;20030;-78
2022/06/07 04:35:45;;;;;;;3.92;2.92;;;;;;;15.51;68.80;98593.22;5021889;28;20021;-78
2022/06/07 04:38:12;;;;;;;3.22;2.35;;;;;;;15.72;67.04;98599.16;5003593;28;20026;-78
2022/06/07 04:40:39;;;;;;;2.92;2.63;;;;;;;15.58;67.45;98592.84;5007173;28;20041;-78
2022/06/07 04:43:05;;;;;;;5.55;2.80;;;;;;;15.59;68.11;98594.47;4990909;28;20026;-78
2022/06/07 04:45:31;;;;;;;4.35;2.47;;;;;;;15.61;67.53;98581.53;5005842;28;20203;-78
2022/06/07 04:47:57;;;;;;;3.22;1.92;;;;;;;15.70;67.27;98583.28;5008552;28;20096;-78
2022/06/07 04:50:22;;;;;;;5.47;2.63;;;;;;;15.28;69.92;98595.84;5008975;28;20034;-77
2022/06/07 04:52:48;;;;;;;4.15;2.92;;;;;;;15.15;71.81;98588.47;5006327;28;20528;-78
2022/06/07 04:55:15;;;;;;;8.27;2.90;;;;;;;15.42;69.07;98596.78;4992539;28;20186;-78
2022/06/07 04:57:40;;;;;;;2.60;2.10;;;;;;;15.68;67.40;98590.06;5007819;28;20037;-78
2022/06/07 05:00:08;;;;;;;3.83;1.80;;;;;;;15.69;66.83;98580.88;4987477;28;20030;-78
2022/06/07 05:02:35;;;;;;;3.17;2.17;;;;;;;15.80;66.79;98590.44;4992023;28;20508;-78
2022/06/07 05:05:02;;;;;;;2.25;2.05;;;;;;;15.76;67.24;98594.81;5021357;28;20032;-78
2022/06/07 05:07:27;;;;;;;2.10;2.00;;;;;;;15.75;67.12;98595.88;5005233;28;20457;-79
2022/06/07 05:09:53;;;;;;;5.38;2.83;;;;;;;15.68;68.28;98600.84;4985197;28;20255;-78
2022/06/07 05:12:18;;;;;;;2.55;2.35;;;;;;;15.60;68.47;98596.06;5006408;28;20068;-78
2022/06/07 05:14:44;;;;;;;1.90;1.80;;;;;;;15.56;68.46;98597.72;5006948;28;20159;-78
2022/06/07 05:17:09;;;;;;;4.30;2.05;;;;;;;15.65;67.12;98591.44;4990395;28;20088;-78
2022/06/07 05:19:35;;;;;;;2.22;2.10;;;;;;;15.77;67.19;98589.13;4989677;28;20482;-79
2022/06/07 05:22:01;;;;;;;2.05;1.83;;;;;;;15.84;66.88;98599.53;4976567;28;20030;-78
2022/06/07 05:24:27;;;;;;;3.85;1.83;;;;;;;15.90;66.96;98598.38;5009957;28;20052;-78
2022/06/07 05:26:56;;;;;;;4.35;2.28;;;;;;;15.94;67.87;98598.63;5022639;28;20501;-78
2022/06/07 05:29:49;;;;;;;3.97;2.10;;;;;;;16.13;66.81;98602.13;5010922;28;20056;-78
2022/06/07 05:32:16;;;;;;;2.30;2.10;;;;;;;15.91;67.48;98583.03;5010176;28;20038;-78
2022/06/07 05:34:41;;;;;;;2.20;2.10;;;;;;;16.02;69.23;98600.66;5012358;28;20112;-78
2022/06/07 05:37:06;;;;;;;2.85;2.33;;;;;;;16.18;67.33;98610.16;5010244;28;20117;-78
2022/06/07 05:39:32;;;;;;;2.05;1.70;;;;;;;16.34;66.93;98598.84;5005857;28;20099;-78
2022/06/07 05:42:00;;;;;;;2.78;2.58;;;;;;;16.21;67.86;98607.66;5009948;28;20493;-78
2022/06/07 05:44:26;;;;;;;2.70;2.30;;;;;;;16.37;66.05;98586.69;5009937;28;20026;-77
2022/06/07 05:46:52;;;;;;;2.05;1.85;;;;;;;16.34;67.36;98598.03;4988733;28;20149;-78
2022/06/07 05:49:18;;;;;;;1.80;1.70;;;;;;;16.38;66.74;98602.56;5001450;28;20022;-78
2022/06/07 05:51:44;;;;;;;4.35;2.25;;;;;;;16.34;68.36;98604.25;5009193;28;20148;-78
2022/06/07 05:54:12;;;;;;;3.40;1.80;;;;;;;16.22;68.14;98603.91;5009013;28;20026;-78
2022/06/07 05:56:37;;;;;;;2.33;1.77;;;;;;;16.60;65.33;98606.59;5011672;28;20075;-77
2022/06/07 05:59:05;;;;;;;4.10;1.95;;;;;;;16.48;66.49;98599.75;5006470;28;20029;-78
2022/06/07 06:01:31;;;;;;;2.08;1.83;;;;;;;16.48;66.49;98610.50;5009429;28;20076;-78
2022/06/07 06:03:57;;;;;;;2.10;2.00;;;;;;;16.61;65.67;98616.28;5009626;28;20026;-77
2022/06/07 06:06:23;;;;;;;3.70;2.17;;;;;;;16.57;66.22;98612.56;5006293;28;20034;-77
2022/06/07 06:11:32;;;;;;;4.10;2.30;;;;;;;16.67;65.66;98613.22;5015332;28;20045;-77
2022/06/07 06:13:58;;;;;;;2.97;1.73;;;;;;;16.74;65.31;98613.66;5004369;28;20482;-79
2022/06/07 06:16:24;;;;;;;3.08;1.70;;;;;;;16.70;65.02;98612.63;5004334;28;20037;-80
2022/06/07 06:18:53;;;;;;;1.60;1.48;;;;;;;16.76;64.77;98610.66;5006378;28;20030;-80
2022/06/07 06:21:20;;;;;;;3.80;2.00;;;;;;;16.75;64.91;98593.69;5008293;28;20041;-79
2022/06/07 06:23:46;;;;;;;2.88;1.75;;;;;;;16.96;63.97;98607.63;4990930;28;20037;-80
2022/06/07 06:26:14;;;;;;;2.08;1.60;;;;;;;16.77;64.37;98574.53;5006380;28;20030;-80
2022/06/07 06:28:41;;;;;;;2.20;1.73;;;;;;;16.86;64.44;98588.94;4989980;28;20481;-80
2022/06/07 06:31:09;;;;;;;3.92;1.30;;;;;;;16.98;63.77;98592.75;4991418;28;20030;-80
2022/06/07 06:33:42;;;;;;;4.30;1.48;;;;;;;16.97;64.11;98599.22;5007181;28;20470;-79
2022/06/07 06:36:10;;;;;;;2.38;1.60;;;;;;;17.06;63.51;98602.03;5007740;28;20029;-79
2022/06/07 06:38:36;;;;;;;1.85;1.35;;;;;;;17.00;63.04;98590.56;4985798;28;20129;-80
2022/06/07 06:41:14;;;;;;;1.67;1.15;;;;;;;17.02;63.18;98582.97;4999741;28;20033;-80
2022/06/07 06:43:40;;;;;;;1.50;1.40;;;;;;;17.07;62.82;98599.06;4986514;28;20048;-80
2022/06/07 06:46:08;;;;;;;2.22;1.73;;;;;;;17.18;62.20;98597.81;5007879;28;20034;-78
2022/06/07 06:48:33;;;;;;;1.90;1.35;;;;;;;17.20;61.95;98602.88;4999572;28;20440;-80
2022/06/07 06:51:01;;;;;;;1.75;1.20;;;;;;;17.20;61.84;98605.59;5018488;28;20033;-79
2022/06/07 06:53:27;;;;;;;3.63;1.45;;;;;;;17.30;61.22;98600.00;5005804;28;20030;-79
2022/06/07 06:55:54;;;;;;;3.10;1.48;;;;;;;17.34;61.35;98601.03;4985195;28;20034;-79
2022/06/07 06:58:20;;;;;;;1.77;1.50;;;;;;;17.43;61.55;98604.59;5005630;28;20061;-79
2022/06/07 07:00:45;;;;;;;2.30;1.63;;;;;;;17.50;60.87;98594.25;5005338;28;20053;-79
2022/06/07 07:03:10;;;;;;;2.35;1.48;;;;;;;17.48;60.58;98584.81;5009737;28;20038;-79
2022/06/07 07:05:36;;;;;;;1.50;1.40;;;;;;;17.50;60.65;98602.34;5007670;28;20033;-79
2022/06/07 07:08:02;;;;;;;2.83;1.40;;;;;;;17.51;60.68;98601.28;4990446;28;20072;-79
2022/06/07 07:10:27;;;;;;;27.73;4.25;;;;;;;17.28;60.19;98596.78;5006376;28;20096;-79
2022/06/07 07:12:52;;;;;;;9.95;1.90;;;;;;;17.25;60.39;98594.72;4989377;28;20069;-79
2022/06/07 07:15:18;;;;;;;11.50;1.77;;;;;;;17.15;60.34;98576.81;4989542;28;20045;-79
2022/06/07 07:17:47;;;;;;;6.40;1.73;;;;;;;17.39;60.41;98597.41;5008504;28;20175;-79
2022/06/07 07:20:12;;;;;;;4.72;1.90;;;;;;;17.52;60.15;98594.75;5021229;28;20524;-79
2022/06/07 07:22:38;;;;;;;1.67;1.10;;;;;;;17.44;60.35;98600.81;5004514;28;20022;-79
2022/06/07 07:25:07;;;;;;;2.20;1.20;;;;;;;17.32;60.66;98580.84;5006177;28;20580;-79
2022/06/07 07:27:33;;;;;;;2.67;1.65;;;;;;;17.38;60.76;98580.44;5006037;28;20116;-79
2022/06/07 07:29:59;;;;;;;2.67;1.25;;;;;;;17.40;60.05;98585.53;4975117;28;20030;-79
2022/06/07 07:32:24;;;;;;;1.40;1.20;;;;;;;17.27;60.36;98578.22;5008562;28;20033;-79
2022/06/07 07:34:50;;;;;;;3.17;1.45;;;;;;;17.29;60.61;98576.81;4975630;28;20048;-79
2022/06/07 07:37:17;;;;;;;6.90;2.03;;;;;;;17.23;60.27;98586.91;4991548;28;20204;-79
2022/06/07 07:39:42;;;;;;;8.10;1.50;;;;;;;17.33;60.37;98580.53;5000705;28;20091;-79
2022/06/07 07:42:08;;;;;;;4.78;1.50;;;;;;;17.25;59.92;98565.03;4990311;28;20041;-79
2022/06/07 07:44:34;;;;;;;3.13;1.60;;;;;;;17.32;60.04;98565.41;4977520;28;20051;-79
2022/06/07 07:46:59;;;;;;;1.90;1.75;;;;;;;17.18;59.32;98559.22;5005363;28;20030;-79
2022/06/07 07:49:24;;;;;;;2.45;1.15;;;;;;;17.39;59.67;98570.41;4988349;28;20057;-79
2022/06/07 07:51:52;;;;;;;1.85;1.23;;;;;;;17.61;59.53;98568.66;5006173;28;20120;-79
2022/06/07 07:54:20;;;;;;;2.15;1.60;;;;;;;17.57;59.75;98570.38;5003431;28;20022;-79
2022/06/07 07:56:45;;;;;;;4.40;1.40;;;;;;;17.51;59.24;98560.78;5004619;28;20034;-78
2022/06/07 07:59:14;;;;;;;3.13;1.33;;;;;;;17.43;58.79;98556.03;5003561;28;20037;-79
2022/06/07 08:01:41;;;;;;;3.58;1.33;;;;;;;17.61;58.18;98565.16;5019078;28;20033;-79
2022/06/07 08:04:09;;;;;;;3.90;1.20;;;;;;;17.70;59.06;98558.78;4986987;28;20132;-79
2022/06/07 08:06:36;;;;;;;4.38;1.95;;;;;;;17.88;58.11;98560.56;5001924;28;20042;-79
2022/06/07 08:09:05;;;;;;;1.73;1.00;;;;;;;17.66;57.21;98557.78;5004187;28;20124;-78
2022/06/07 08:11:34;;;;;;;2.35;1.10;;;;;;;17.49;58.08;98533.28;5005146;28;20088;-79
2022/06/07 08:14:01;;;;;;;3.13;1.50;;;;;;;17.68;57.42;98547.47;5003980;28;20126;-79
2022/06/07 08:16:27;;;;;;;2.10;0.98;;;;;;;17.77;57.52;98559.16;4991536;28;20036;-78
2022/06/07 08:18:53;;;;;;;2.78;1.15;;;;;;;17.85;56.42;98553.06;5005378;28;20022;-78
2022/06/07 08:21:22;;;;;;;1.45;1.30;;;;;;;17.97;56.65;98556.00;5002355;28;20034;-79
2022/06/07 08:23:49;;;;;;;1.40;1.30;;;;;;;18.07;56.38;98559.59;5008241;28;20057;-79
2022/06/07 08:26:16;;;;;;;1.50;1.33;;;;;;;18.19;58.76;98555.28;5006213;28;20064;-79
2022/06/07 08:28:42;;;;;;;3.28;2.00;;;;;;;18.42;56.57;98553.38;5008204;28;20104;-79
2022/06/07 08:31:16;;;;;;;3.67;1.25;;;;;;;18.38;57.21;98550.50;5006111;28;20061;-79
2022/06/07 08:39:10;;;;;;;3.58;2.10;;;;;;;18.42;58.79;98550.69;5004455;28;20564;-78
2022/06/07 08:41:49;;;;;;;1.73;1.15;;;;;;;18.30;56.62;98542.34;5005124;28;20022;-79
2022/06/07 08:44:19;;;;;;;1.40;1.02;;;;;;;18.38;56.47;98536.19;5004472;28;20375;-79
2022/06/07 08:46:45;;;;;;;2.80;1.20;;;;;;;18.41;56.76;98539.06;5022399;28;20081;-79
2022/06/07 08:49:12;;;;;;;2.55;1.63;;;;;;;18.46;56.25;98546.28;5005575;28;20124;-78
2022/06/07 08:51:54;;;;;;;2.60;1.45;;;;;;;18.49;57.92;98535.69;5007195;28;20045;-78
2022/06/07 08:54:25;;;;;;;2.15;1.55;;;;;;;18.59;56.10;98548.94;5005267;28;20076;-78
2022/06/07 08:56:52;;;;;;;4.20;1.60;;;;;;;18.47;56.38;98535.19;5004310;28;20026;-78
2022/06/07 08:59:20;;;;;;;4.57;1.55;;;;;;;18.53;56.36;98546.66;5017860;28;20417;-79
2022/06/07 09:01:48;;;;;;;5.38;1.40;;;;;;;18.60;56.03;98539.75;5006144;28;20026;-79
2022/06/07 09:04:29;;;;;;;2.55;1.38;;;;;;;18.40;55.93;98553.72;5008391;28;20030;-78
2022/06/07 09:07:03;;;;;;;3.70;1.48;;;;;;;18.51;55.74;98540.78;5009350;28;20026;-78
2022/06/07 09:12:23;;;;;;;2.95;1.23;;;;;;;18.82;54.94;98532.72;5008419;28;20406;-78
2022/06/07 09:14:55;;;;;;;3.60;1.55;;;;;;;18.90;54.88;98526.53;5000098;28;20038;-79
2022/06/07 09:17:34;;;;;;;3.28;1.13;;;;;;;18.90;55.25;98540.88;5019499;28;20257;-78
2022/06/07 09:20:01;;;;;;;2.33;1.35;;;;;;;18.81;55.06;98541.91;5009099;28;20355;-79
2022/06/07 09:22:50;;;;;;;1.30;1.20;;;;;;;19.12;54.97;98537.31;5010322;28;20029;-79
2022/06/07 09:25:38;;;;;;;3.17;1.20;;;;;;;19.16;54.12;98524.75;5009117;28;20021;-78
2022/06/07 09:28:06;;;;;;;1.88;1.23;;;;;;;19.23;53.55;98528.63;4992347;28;20042;-78
2022/06/07 09:30:39;;;;;;;2.17;1.60;;;;;;;19.34;54.66;98518.31;5007129;28;20035;-78
2022/06/07 09:33:10;;;;;;;1.25;1.15;;;;;;;19.47;54.74;98519.34;5004187;28;20061;-79
2022/06/07 09:35:39;;;;;;;2.90;1.00;;;;;;;19.51;53.27;98523.81;5007421;28;20389;-79
2022/06/07 09:38:13;;;;;;;4.28;1.65;;;;;;;19.53;53.16;98531.66;5009789;28;20370;-78
2022/06/07 09:40:53;;;;;;;3.42;1.33;;;;;;;19.40;54.08;98533.31;4991678;28;20037;-79
2022/06/07 09:43:25;;;;;;;3.10;1.20;;;;;;;19.82;53.12;98532.66;5011157;28;20053;-78
2022/06/07 09:46:05;;;;;;;1.58;1.27;;;;;;;19.94;52.73;98519.28;5010802;28;20037;-79
2022/06/07 09:48:37;;;;;;;2.35;0.98;;;;;;;19.84;52.68;98530.44;5011743;28;20057;-79
2022/06/07 09:51:22;;;;;;;1.05;0.93;;;;;;;19.72;52.71;98524.03;5028703;28;20026;-78
2022/06/07 09:54:01;;;;;;;1.80;1.30;;;;;;;19.81;51.86;98516.72;5010903;28;20129;-79
2022/06/07 09:56:47;;;;;;;3.15;1.25;;;;;;;19.84;51.96;98525.00;5010968;28;20030;-78
2022/06/07 09:59:20;;;;;;;1.27;1.00;;;;;;;20.07;51.28;98514.84;5025302;28;20034;-78
2022/06/07 10:01:59;;;;;;;4.78;1.30;;;;;;;20.30;51.16;98505.47;5008745;28;20109;-79
2022/06/07 10:05:08;;;;;;;2.40;1.10;;;;;;;20.30;51.57;98515.50;5022373;28;20600;-79
2022/06/07 10:08:04;;;;;;;2.67;1.02;;;;;;;20.46;51.05;98522.84;5008104;28;20029;-78
2022/06/07 10:10:34;;;;;;;0.90;0.90;;;;;;;20.36;50.86;98506.88;5006713;28;20018;-79
2022/06/07 10:13:03;;;;;;;1.92;0.98;;;;;;;20.26;50.92;98520.78;5005732;28;20092;-79
2022/06/07 10:15:47;;;;;;;2.67;1.20;;;;;;;20.14;51.33;98523.28;5011138;28;20025;-79
2022/06/07 10:18:15;;;;;;;1.38;1.27;;;;;;;20.08;51.25;98522.66;4996493;28;20249;-79
2022/06/07 10:21:02;;;;;;;1.33;1.23;;;;;;;20.09;51.37;98526.16;5024249;28;20388;-79
2022/06/07 10:24:17;;;;;;;2.03;1.33;;;;;;;19.95;51.23;98512.75;5011201;28;20025;-79
2022/06/07 10:26:57;;;;;;;3.08;1.60;;;;;;;20.26;50.43;98519.97;5004934;28;20548;-79
2022/06/07 10:29:58;;;;;;;1.25;1.00;;;;;;;20.45;50.88;98486.00;5009408;28;20029;-79
2022/06/07 10:32:44;;;;;;;1.27;1.17;;;;;;;20.84;50.11;98510.16;4988197;28;20122;-79
2022/06/07 10:35:26;;;;;;;4.25;1.23;;;;;;;20.64;50.75;98496.50;5009980;28;20029;-80
2022/06/07 10:38:06;;;;;;;0.93;0.90;;;;;;;20.66;50.15;98505.88;5010187;28;20088;-80
2022/06/07 10:41:03;;;;;;;4.20;1.52;;;;;;;20.96;50.05;98497.84;5007293;28;20057;-79
2022/06/07 10:43:53;;;;;;;1.27;1.17;;;;;;;21.21;49.61;98505.91;5016605;28;20193;-79
2022/06/07 10:46:21;;;;;;;5.20;1.40;;;;;;;21.28;50.63;98475.53;5011869;28;20081;-79
2022/06/07 10:48:55;;;;;;;3.25;1.23;;;;;;;21.52;49.06;98483.88;5010587;28;20029;-78
2022/06/07 10:54:23;;;;;;;5.95;1.25;;;;;;;21.69;48.06;98486.47;5011060;28;20393;-79
2022/06/07 10:57:16;;;;;;;0.98;0.80;;;;;;;21.69;48.27;98505.50;5006385;28;20033;-79
2022/06/07 10:59:43;;;;;;;1.95;0.93;;;;;;;21.33;49.31;98487.03;5005303;28;20049;-79
2022/06/07 11:02:19;;;;;;;2.75;1.02;;;;;;;21.06;49.41;98482.03;5008240;28;20037;-79
2022/06/07 11:10:55;;;;;;;1.20;1.08;;;;;;;21.35;49.47;98471.19;5003052;28;20110;-78
2022/06/07 11:13:38;;;;;;;3.15;0.90;;;;;;;21.11;49.99;98478.34;4991384;28;20038;-78
2022/06/07 11:16:08;;;;;;;1.35;1.10;;;;;;;21.17;49.31;98472.41;5004995;28;20018;-79
2022/06/07 11:18:34;;;;;;;2.70;1.02;;;;;;;21.20;49.38;98470.94;5021841;28;20046;-78
2022/06/07 11:21:02;;;;;;;2.08;1.23;;;;;;;21.12;49.92;98483.44;4992048;28;20790;-78
2022/06/07 11:23:35;;;;;;;2.97;1.00;;;;;;;21.24;49.89;98483.56;5010094;28;20064;-78
2022/06/07 11:26:17;;;;;;;1.25;1.00;;;;;;;21.28;49.70;98470.09;4988803;28;20032;-79
2022/06/07 11:28:52;;;;;;;3.88;1.10;;;;;;;21.51;49.49;98482.31;5011722;28;20041;-78
2022/06/07 11:31:20;;;;;;;1.20;1.10;;;;;;;21.54;49.46;98479.72;5009155;28;20026;-79
2022/06/07 11:33:52;;;;;;;2.58;1.10;;;;;;;21.49;49.75;98488.03;5022279;28;20474;-79
2022/06/07 11:36:20;;;;;;;3.03;0.93;;;;;;;21.67;49.29;98477.88;5009497;28;20021;-78
2022/06/07 11:38:55;;;;;;;8.02;1.48;;;;;;;21.96;48.57;98460.75;5010128;28;20032;-79
2022/06/07 11:41:38;;;;;;;2.33;1.00;;;;;;;22.27;47.88;98467.38;5007584;28;20029;-79
2022/06/07 11:44:12;;;;;;;1.00;0.93;;;;;;;22.25;47.96;98458.75;5001698;28;20432;-79
2022/06/07 11:46:57;;;;;;;1.85;0.88;;;;;;;22.11;48.46;98466.38;5006486;28;20592;-79
2022/06/07 11:49:27;;;;;;;1.52;0.90;;;;;;;22.03;48.52;98472.69;5009538;28;20034;-78
2022/06/07 11:52:11;;;;;;;0.77;0.77;;;;;;;21.84;48.97;98469.63;5020063;28;20061;-79
2022/06/07 11:54:45;;;;;;;3.92;1.00;;;;;;;21.67;50.04;98481.38;5009008;28;20124;-79
2022/06/07 11:57:32;;;;;;;0.70;0.70;;;;;;;21.44;49.73;98482.81;5021967;28;20077;-78
2022/06/07 12:00:15;;;;;;;2.35;0.82;;;;;;;21.36;49.46;98466.56;5024234;28;20076;-78
2022/06/07 12:02:42;;;;;;;1.02;1.00;;;;;;;21.41;49.23;98458.22;5005685;28;20037;-78
2022/06/07 12:05:28;;;;;;;1.55;0.88;;;;;;;21.74;48.85;98442.81;5002985;28;20091;-78
2022/06/07 12:08:15;;;;;;;3.20;0.93;;;;;;;22.24;48.75;98451.72;5007123;28;20037;-78
2022/06/07 12:10:55;;;;;;;3.17;1.60;;;;;;;22.66;48.13;98447.00;5006761;28;20041;-78
2022/06/07 12:16:24;;;;;;;4.57;1.02;;;;;;;22.93;47.70;98451.03;5006312;28;20535;-78
2022/06/07 12:18:54;;;;;;;1.80;1.23;;;;;;;22.73;48.62;98449.16;5004854;28;20056;-78